Aviation Digital Data Service (ADDS)

Output produced by METARs form (1742 UTC 24 June 2019)
found at http://www.aviationweather.gov/metar/data/
 
METAR text: FDMS 241300Z 08004KT CAVOK 22/08 Q1019 NOSIG
Conditions at: FDMS (MANZINI/MATSAPA , SZ) observed 1300 UTC 24 June 2019
Temperature: 22.0°C (72°F)
Dewpoint: 8.0°C (46°F) [RH = 41%]
Pressure (altimeter): 30.09 inches Hg (1019.0 mb)
Winds: from the E (80 degrees) at 5 MPH (4 knots; 2.1 m/s)
Visibility: 6 or more miles (10+ km)
Ceiling: ceiling and visibility are OK
Clouds: unknown
Weather: no significant weather observed at this time

METAR text: FDMS 241200Z 09005KT CAVOK 22/07 Q1019 NOSIG
Conditions at: FDMS (MANZINI/MATSAPA , SZ) observed 1200 UTC 24 June 2019
Temperature: 22.0°C (72°F)
Dewpoint: 7.0°C (45°F) [RH = 38%]
Pressure (altimeter): 30.09 inches Hg (1019.0 mb)
Winds: from the E (90 degrees) at 6 MPH (5 knots; 2.6 m/s)
Visibility: 6 or more miles (10+ km)
Ceiling: ceiling and visibility are OK
Clouds: unknown
Weather: no significant weather observed at this time

METAR text: FDMS 241100Z 12005KT CAVOK 21/08 Q1020 NOSIG
Conditions at: FDMS (MANZINI/MATSAPA , SZ) observed 1100 UTC 24 June 2019
Temperature: 21.0°C (70°F)
Dewpoint: 8.0°C (46°F) [RH = 43%]
Pressure (altimeter): 30.12 inches Hg (1020.0 mb)
Winds: from the ESE (120 degrees) at 6 MPH (5 knots; 2.6 m/s)
Visibility: 6 or more miles (10+ km)
Ceiling: ceiling and visibility are OK
Clouds: unknown
Weather: no significant weather observed at this time

METAR text: FDMS 241000Z VRB02KT CAVOK 20/07 Q1021 NOSIG
Conditions at: FDMS (MANZINI/MATSAPA , SZ) observed 1000 UTC 24 June 2019
Temperature: 20.0°C (68°F)
Dewpoint: 7.0°C (45°F) [RH = 43%]
Pressure (altimeter): 30.15 inches Hg (1021.0 mb)
Winds: variable direction winds at 2 MPH (2 knots; 1.0 m/s)
Visibility: 6 or more miles (10+ km)
Ceiling: ceiling and visibility are OK
Clouds: unknown
Weather: no significant weather observed at this time

METAR text: FDMS 240700Z 35004KT CAVOK 13/10 Q1023 NOSIG
Conditions at: FDMS (MANZINI/MATSAPA , SZ) observed 0700 UTC 24 June 2019
Temperature: 13.0°C (55°F)
Dewpoint: 10.0°C (50°F) [RH = 82%]
Pressure (altimeter): 30.21 inches Hg (1023.0 mb)
Winds: from the N (350 degrees) at 5 MPH (4 knots; 2.1 m/s)
Visibility: 6 or more miles (10+ km)
Ceiling: ceiling and visibility are OK
Clouds: unknown
Weather: no significant weather observed at this time

METAR text: FDMS 240600Z 35004KT CAVOK 10/08 Q1022 NOSIG
Conditions at: FDMS (MANZINI/MATSAPA , SZ) observed 0600 UTC 24 June 2019
Temperature: 10.0°C (50°F)
Dewpoint: 8.0°C (46°F) [RH = 87%]
Pressure (altimeter): 30.18 inches Hg (1022.0 mb)
Winds: from the N (350 degrees) at 5 MPH (4 knots; 2.1 m/s)
Visibility: 6 or more miles (10+ km)
Ceiling: ceiling and visibility are OK
Clouds: unknown
Weather: no significant weather observed at this time

Forecast for: FDMS (MANZINI/MATSAPA , SZ)
Text: TAF FDMS 241000Z 2412/2418 07006KT CAVOK
Forecast period: 1200 to 1800 UTC 24 June 2019
Forecast type: FROM: standard forecast or significant change
Winds: from the ENE (70 degrees) at 7 MPH (6 knots; 3.1 m/s)
Visibility: 6 or more miles 10+ km)
Ceiling: unknown
Clouds: missing
Weather: NSW  (no significant weather)